createdAt,value
2022-10-19T00:04:25.362Z,83.50
2022-10-19T00:09:30.312Z,84.30
2022-10-19T00:14:37.494Z,84.70
2022-10-19T00:19:41.257Z,84.40
2022-10-19T00:24:46.485Z,84.70
2022-10-19T00:29:50.548Z,85.40
2022-10-19T00:34:54.022Z,84.60
2022-10-19T00:39:58.963Z,84.60
2022-10-19T00:45:14.635Z,84.70
2022-10-19T00:50:18.474Z,84.50
2022-10-19T00:55:23.485Z,84.90
2022-10-19T01:00:27.384Z,84.70
2022-10-19T01:05:32.488Z,85.20
2022-10-19T01:10:51.047Z,85.00
2022-10-19T01:16:05.805Z,85.30
2022-10-19T01:21:24.022Z,84.90
2022-10-19T01:27:26.390Z,85.00
2022-10-19T01:32:51.963Z,84.90
2022-10-19T01:38:09.002Z,85.20
2022-10-19T01:43:24.635Z,85.00
2022-10-19T01:48:37.342Z,84.80
2022-10-19T01:53:49.194Z,84.80
2022-10-19T01:58:56.281Z,84.80
2022-10-19T02:04:02.526Z,84.70
2022-10-19T02:09:06.274Z,84.70
2022-10-19T02:14:15.850Z,84.40
2022-10-19T02:24:26.418Z,85.20
2022-10-19T02:29:30.160Z,85.70
2022-10-19T02:34:36.599Z,85.30
2022-10-19T02:39:41.357Z,85.20
2022-10-19T02:44:52.909Z,85.00
2022-10-19T02:49:58.038Z,85.20
2022-10-19T02:55:01.698Z,84.80
2022-10-19T03:00:08.808Z,85.10
2022-10-19T03:05:13.766Z,85.00
2022-10-19T03:10:17.571Z,84.90
2022-10-19T03:15:23.905Z,84.90
2022-10-19T03:20:28.811Z,85.00
2022-10-19T03:25:32.842Z,84.90
2022-10-19T03:30:36.583Z,85.40
2022-10-19T03:35:41.411Z,85.40
2022-10-19T03:40:44.983Z,85.10
2022-10-19T03:45:48.590Z,85.10
2022-10-19T03:51:02.145Z,85.40
2022-10-19T03:56:09.830Z,85.10
2022-10-19T04:01:17.146Z,85.10
2022-10-19T04:06:27.413Z,85.30
2022-10-19T04:11:33.589Z,85.50
2022-10-19T04:16:37.228Z,85.50
2022-10-19T04:21:43.799Z,85.30
2022-10-19T04:26:50.900Z,85.30
2022-10-19T04:31:54.743Z,85.00
2022-10-19T04:37:01.364Z,85.10
2022-10-19T04:42:05.058Z,84.90
2022-10-19T04:47:08.702Z,85.00
2022-10-19T04:52:13.732Z,84.80
2022-10-19T04:57:17.357Z,85.00
2022-10-19T05:02:21.014Z,85.00
2022-10-19T05:07:26.097Z,85.00
2022-10-19T05:12:29.539Z,84.80
2022-10-19T05:17:33.928Z,84.60
2022-10-19T05:22:39.349Z,84.50
2022-10-19T05:27:43.062Z,84.80
2022-10-19T05:32:46.739Z,84.80
2022-10-19T05:37:56.312Z,84.10
2022-10-19T05:43:00.045Z,83.00
2022-10-19T05:48:03.571Z,82.90
2022-10-19T05:53:08.760Z,82.40
2022-10-19T05:58:12.337Z,82.10
2022-10-19T06:03:17.394Z,81.90
2022-10-19T06:08:24.265Z,81.90
2022-10-19T06:13:28.120Z,81.60
2022-10-19T06:18:31.820Z,81.70
2022-10-19T06:23:37.834Z,81.50
2022-10-19T06:28:43.722Z,81.60
2022-10-19T06:33:49.442Z,81.50
2022-10-19T06:38:56.600Z,81.30
2022-10-19T06:44:00.527Z,81.20
2022-10-19T06:49:04.636Z,81.70
2022-10-19T06:54:09.757Z,80.00
2022-10-19T06:59:14.838Z,78.80
2022-10-19T07:04:18.694Z,77.90
2022-10-19T07:09:23.988Z,77.00
2022-10-19T07:14:28.528Z,76.00
2022-10-19T07:19:32.918Z,75.50
2022-10-19T07:24:38.644Z,75.00
2022-10-19T07:29:42.338Z,74.80
2022-10-19T07:34:46.001Z,74.50
2022-10-19T07:39:51.164Z,74.10
2022-10-19T07:44:54.806Z,74.10
2022-10-19T07:49:58.455Z,74.80
2022-10-19T07:55:04.043Z,74.30
2022-10-19T08:00:10.484Z,73.70
2022-10-19T08:05:17.629Z,73.80
2022-10-19T08:10:22.829Z,73.80
2022-10-19T08:15:26.828Z,73.60
2022-10-19T08:20:30.670Z,73.60
2022-10-19T08:25:35.701Z,74.10
2022-10-19T08:30:40.177Z,74.20
2022-10-19T08:35:43.794Z,74.70
2022-10-19T08:40:49.164Z,75.00
2022-10-19T08:45:59.828Z,75.40
2022-10-19T08:51:04.329Z,75.70
2022-10-19T08:56:49.463Z,76.00
2022-10-19T09:01:56.989Z,76.30
2022-10-19T09:07:26.509Z,76.50
2022-10-19T09:12:45.990Z,76.80
2022-10-19T09:17:49.889Z,76.90
2022-10-19T09:23:09.799Z,77.20
2022-10-19T09:28:41.109Z,77.30
2022-10-19T09:33:55.656Z,77.90
2022-10-19T09:38:59.355Z,78.60
2022-10-19T09:44:04.836Z,78.40
2022-10-19T09:49:08.641Z,78.20
2022-10-19T09:54:28.754Z,78.40
2022-10-19T09:59:37.988Z,78.60
2022-10-19T10:04:42.835Z,78.10
2022-10-19T10:09:46.843Z,78.00
2022-10-19T10:14:54.088Z,78.00
2022-10-19T10:20:20.991Z,78.20
2022-10-19T10:25:30.843Z,78.00
2022-10-19T10:30:39.109Z,78.40
2022-10-19T10:35:49.203Z,78.50
2022-10-19T10:40:57.165Z,78.40
2022-10-19T10:46:08.296Z,78.00
2022-10-19T10:51:24.538Z,77.90
2022-10-19T10:56:33.528Z,77.60
2022-10-19T11:01:43.994Z,77.40
2022-10-19T11:06:57.265Z,77.10
2022-10-19T11:12:10.094Z,77.00
2022-10-19T11:17:23.806Z,76.80
2022-10-19T11:22:36.745Z,76.60
2022-10-19T11:27:52.990Z,76.60
2022-10-19T11:33:09.095Z,76.80
2022-10-19T11:38:39.581Z,77.10
2022-10-19T11:44:06.327Z,78.10
2022-10-19T11:49:33.985Z,78.40
2022-10-19T11:54:59.345Z,78.50
2022-10-19T12:00:15.356Z,78.50
2022-10-19T12:05:33.839Z,78.40
2022-10-19T12:10:47.754Z,78.30
2022-10-19T12:15:54.896Z,78.20
2022-10-19T12:21:04.529Z,78.10
2022-10-19T12:26:12.903Z,78.00
2022-10-19T12:31:17.018Z,78.00
2022-10-19T12:36:41.167Z,77.90
2022-10-19T12:41:52.501Z,77.80
2022-10-19T12:47:02.331Z,77.80
2022-10-19T12:52:09.123Z,77.80
2022-10-19T12:57:32.132Z,77.70
2022-10-19T13:02:38.120Z,77.80
2022-10-19T13:07:43.324Z,77.80
2022-10-19T13:12:49.249Z,77.80
2022-10-19T13:17:53.719Z,77.80
2022-10-19T13:23:42.909Z,77.70
2022-10-19T13:28:55.080Z,77.70
2022-10-19T13:33:59.703Z,77.50
2022-10-19T13:39:21.010Z,77.40
2022-10-19T13:44:35.484Z,77.40
2022-10-19T13:50:23.843Z,77.40
2022-10-19T13:56:00.757Z,77.40
2022-10-19T14:01:28.698Z,77.40
2022-10-19T14:06:41.345Z,77.40
2022-10-19T14:11:50.003Z,77.30
2022-10-19T14:17:01.180Z,77.50
2022-10-19T14:22:25.823Z,77.50
2022-10-19T14:27:32.827Z,77.50
2022-10-19T14:32:36.875Z,77.60
2022-10-19T14:37:44.083Z,77.60
2022-10-19T14:42:50.156Z,77.50
2022-10-19T14:48:01.239Z,77.40
2022-10-19T14:53:26.664Z,77.50
2022-10-19T14:58:41.583Z,77.50
2022-10-19T15:03:47.590Z,77.50
2022-10-19T15:08:55.271Z,77.50
2022-10-19T15:14:07.086Z,77.40
2022-10-19T15:19:27.736Z,77.20
2022-10-19T15:24:31.318Z,77.20
2022-10-19T15:29:36.534Z,77.60
2022-10-19T15:34:43.058Z,77.80
2022-10-19T15:39:46.793Z,77.10
2022-10-19T15:44:51.954Z,76.90
2022-10-19T15:50:01.844Z,76.90
2022-10-19T15:55:06.444Z,76.90
2022-10-19T16:00:17.650Z,76.80
2022-10-19T16:05:21.258Z,76.40
2022-10-19T16:10:27.965Z,76.00
2022-10-19T16:15:33.578Z,75.90
2022-10-19T16:20:38.767Z,75.90
2022-10-19T16:25:42.287Z,76.00
2022-10-19T16:30:47.614Z,76.20
2022-10-19T16:35:51.334Z,76.20
2022-10-19T16:40:55.220Z,76.30
2022-10-19T16:46:00.347Z,76.40
2022-10-19T16:51:37.392Z,76.50
2022-10-19T16:56:46.414Z,76.80
2022-10-19T17:01:51.823Z,77.00
2022-10-19T17:06:57.866Z,77.30
2022-10-19T17:12:01.560Z,77.50
2022-10-19T17:17:06.484Z,77.80
2022-10-19T17:22:10.026Z,77.60
2022-10-19T17:27:13.652Z,77.70
2022-10-19T17:32:18.671Z,77.80
2022-10-19T17:37:22.094Z,77.80
2022-10-19T17:42:25.834Z,77.80
2022-10-19T17:47:31.365Z,77.90
2022-10-19T17:52:34.988Z,77.90
2022-10-19T17:57:38.552Z,78.00
2022-10-19T18:02:46.403Z,77.90
2022-10-19T18:07:53.097Z,78.10
2022-10-19T18:12:56.679Z,78.00
2022-10-19T18:18:02.016Z,78.50
2022-10-19T18:23:05.662Z,76.90
2022-10-19T18:28:09.177Z,75.60
2022-10-19T18:33:14.534Z,75.00
2022-10-19T18:38:18.192Z,74.80
2022-10-19T18:43:21.659Z,74.70
2022-10-19T18:48:30.082Z,74.80
2022-10-19T18:53:34.917Z,74.90
2022-10-19T18:58:39.246Z,75.00
2022-10-19T19:03:47.410Z,75.00
2022-10-19T19:08:51.314Z,75.20
2022-10-19T19:13:57.865Z,75.30
2022-10-19T19:19:03.052Z,75.50
2022-10-19T19:24:08.666Z,75.70
2022-10-19T19:29:12.474Z,75.90
2022-10-19T19:34:17.541Z,76.30
2022-10-19T19:39:22.544Z,76.40
2022-10-19T19:44:29.599Z,76.70
2022-10-19T19:49:34.461Z,77.10
2022-10-19T19:54:38.149Z,77.20
2022-10-19T19:59:41.754Z,77.20
2022-10-19T20:04:46.787Z,77.30
2022-10-19T20:09:50.363Z,77.40
2022-10-19T20:14:54.401Z,77.40
2022-10-19T20:19:59.238Z,77.60
2022-10-19T20:25:02.942Z,78.20
2022-10-19T20:30:08.799Z,78.70
2022-10-19T20:35:13.653Z,79.10
2022-10-19T20:40:17.711Z,79.20
2022-10-19T20:45:22.946Z,79.40
2022-10-19T20:50:27.841Z,79.30
2022-10-19T20:55:31.319Z,79.40
2022-10-19T21:00:35.044Z,79.60
2022-10-19T21:05:40.873Z,79.80
2022-10-19T21:10:44.562Z,80.10
2022-10-19T21:15:48.078Z,80.10
2022-10-19T21:20:52.943Z,80.20
2022-10-19T21:25:58.157Z,80.60
2022-10-19T21:31:05.258Z,80.30
2022-10-19T21:36:12.311Z,80.70
2022-10-19T21:41:23.836Z,81.00
2022-10-19T21:46:30.258Z,81.70
2022-10-19T21:51:40.770Z,81.90
2022-10-19T21:56:45.763Z,82.90
2022-10-19T22:01:49.432Z,82.10
2022-10-19T22:06:59.584Z,82.00
2022-10-19T22:12:03.204Z,82.20
2022-10-19T22:17:06.765Z,82.70
2022-10-19T22:22:11.689Z,82.80
2022-10-19T22:27:15.238Z,82.80
2022-10-19T22:32:18.845Z,82.60
2022-10-19T22:37:23.808Z,82.30
2022-10-19T22:43:59.663Z,82.50
2022-10-19T22:49:22.101Z,82.90
2022-10-19T22:54:27.139Z,83.30
2022-10-19T22:59:30.688Z,83.20
2022-10-19T23:04:34.931Z,83.20
2022-10-19T23:09:41.079Z,83.30
2022-10-19T23:14:44.620Z,83.40
2022-10-19T23:19:48.452Z,83.10
2022-10-19T23:24:53.686Z,83.40
2022-10-19T23:29:57.315Z,83.60
2022-10-19T23:35:00.882Z,83.50
2022-10-19T23:40:07.374Z,84.10
2022-10-19T23:45:13.161Z,83.90
2022-10-19T23:50:16.953Z,83.10
2022-10-19T23:55:21.863Z,83.50
